Time;durP1;ratioP1;P1;durP2;ratioP2;P2;SDS_P1;SDS_P2;PMS_P1;PMS_P2;Temp;Humidity;BMP_temperature;BMP_pressure;BME280_temperature;BME280_humidity;BME280_pressure;Samples;Min_cycle;Max_cycle;Signal;HPM_P1;HPM_P2
2022/10/15 00:01:30;;;;;;;29.38;22.60;;;;;;;10.90;100.00;100689.16;5026624;28;20032;-87
2022/10/15 00:03:55;;;;;;;31.27;27.40;;;;;;;10.81;100.00;100689.09;5033027;28;20480;-87
2022/10/15 00:06:21;;;;;;;29.77;24.90;;;;;;;10.90;100.00;100699.53;5050912;28;20029;-86
2022/10/15 00:08:47;;;;;;;30.48;23.88;;;;;;;10.82;100.00;100680.38;5044510;28;20021;-85
2022/10/15 00:11:19;;;;;;;30.25;22.52;;;;;;;10.85;100.00;100691.31;5026682;28;20138;-87
2022/10/15 00:13:45;;;;;;;29.15;24.55;;;;;;;10.81;100.00;100679.53;5018815;28;20448;-87
2022/10/15 00:16:15;;;;;;;29.88;25.27;;;;;;;10.89;100.00;100686.66;5019937;28;20131;-87
2022/10/15 00:18:41;;;;;;;30.35;26.75;;;;;;;10.86;100.00;100686.94;5038125;28;20400;-87
2022/10/15 00:21:11;;;;;;;28.52;23.60;;;;;;;10.84;100.00;100691.47;5044645;28;20028;-86
2022/10/15 00:23:37;;;;;;;31.08;27.42;;;;;;;10.76;100.00;100678.28;5044539;28;20059;-87
2022/10/15 00:26:09;;;;;;;33.30;28.63;;;;;;;10.80;100.00;100690.06;5044338;28;20025;-85
2022/10/15 00:28:34;;;;;;;32.80;29.30;;;;;;;10.79;100.00;100686.66;5034007;28;20044;-86
2022/10/15 00:31:05;;;;;;;32.05;25.67;;;;;;;10.83;100.00;100679.41;5043788;28;20036;-87
2022/10/15 00:33:30;;;;;;;30.27;25.40;;;;;;;10.85;100.00;100680.94;5036501;28;20049;-87
2022/10/15 00:36:17;;;;;;;32.25;26.67;;;;;;;10.90;100.00;100683.16;5044502;28;20055;-87
2022/10/15 00:38:42;;;;;;;31.42;26.35;;;;;;;10.82;100.00;100670.00;5017953;28;20043;-86
2022/10/15 00:41:13;;;;;;;30.48;24.60;;;;;;;10.89;100.00;100678.88;5026588;28;20115;-86
2022/10/15 00:43:52;;;;;;;32.72;26.02;;;;;;;10.91;100.00;100679.59;5015065;28;20511;-86
2022/10/15 00:46:30;;;;;;;34.38;24.55;;;;;;;10.94;100.00;100678.50;5031126;28;20106;-88
2022/10/15 00:49:01;;;;;;;33.80;29.52;;;;;;;10.91;100.00;100687.38;5044952;28;20044;-86
2022/10/15 00:51:32;;;;;;;36.33;32.13;;;;;;;10.85;100.00;100674.94;5039518;28;20037;-87
2022/10/15 00:53:58;;;;;;;32.65;24.13;;;;;;;10.97;100.00;100689.44;5043983;28;20025;-88
2022/10/15 00:56:26;;;;;;;36.88;29.92;;;;;;;10.83;100.00;100669.03;5052341;28;20369;-86
2022/10/15 00:58:52;;;;;;;34.75;25.17;;;;;;;10.90;100.00;100672.78;5045943;28;20041;-86
2022/10/15 01:01:18;;;;;;;36.53;23.38;;;;;;;10.98;100.00;100685.91;5043971;28;20029;-87
2022/10/15 01:03:44;;;;;;;39.15;27.42;;;;;;;10.91;100.00;100674.41;5053327;28;20047;-86
2022/10/15 01:06:09;;;;;;;41.00;30.52;;;;;;;10.94;100.00;100674.13;5051188;28;20041;-85
2022/10/15 01:08:34;;;;;;;39.17;31.30;;;;;;;10.92;100.00;100665.66;5021303;28;20029;-86
2022/10/15 01:11:25;;;;;;;42.00;35.38;;;;;;;11.05;100.00;100683.59;5050696;28;20090;-86
2022/10/15 01:14:22;;;;;;;41.22;30.15;;;;;;;11.07;100.00;100674.75;5057365;28;20087;-87
2022/10/15 01:17:26;;;;;;;37.95;26.55;;;;;;;11.08;100.00;100678.97;5024132;28;20021;-87
2022/10/15 01:23:40;;;;;;;41.55;31.92;;;;;;;11.11;100.00;100659.69;5031849;28;20156;-89
2022/10/15 01:26:32;;;;;;;39.83;29.60;;;;;;;11.11;100.00;100660.53;5008652;28;20548;-88
2022/10/15 01:29:37;;;;;;;44.08;31.58;;;;;;;11.03;100.00;100642.22;5015803;28;20049;-88
2022/10/15 01:32:11;;;;;;;44.25;31.40;;;;;;;11.10;100.00;100647.69;5022602;28;20037;-88
2022/10/15 01:34:44;;;;;;;45.22;32.25;;;;;;;11.12;100.00;100656.97;5031523;28;20074;-87
2022/10/15 01:37:32;;;;;;;43.33;31.38;;;;;;;11.11;100.00;100650.13;5042379;28;20044;-85
2022/10/15 01:40:26;;;;;;;41.65;24.98;;;;;;;11.17;100.00;100647.00;5015481;28;20043;-86
2022/10/15 01:42:59;;;;;;;40.72;25.75;;;;;;;11.15;100.00;100646.34;5010461;28;20549;-88
2022/10/15 01:45:31;;;;;;;48.30;33.88;;;;;;;11.15;100.00;100641.16;5025647;28;20052;-88
2022/10/15 01:48:02;;;;;;;48.15;38.47;;;;;;;11.07;100.00;100633.22;5017344;28;20080;-85
2022/10/15 01:50:30;;;;;;;46.85;38.80;;;;;;;11.19;100.00;100641.72;5019814;28;20125;-87
2022/10/15 01:52:58;;;;;;;;;;;;;;;11.29;100.00;100646.91;5017930;28;20051;-88
2022/10/15 01:55:25;;;;;;;38.85;26.85;;;;;;;11.21;100.00;100633.78;5048357;28;19990;-87
2022/10/15 01:57:54;;;;;;;37.65;24.80;;;;;;;11.22;100.00;100635.41;5029133;28;20059;-88
2022/10/15 02:00:19;;;;;;;;;;;;;;;11.33;100.00;100637.91;5039732;28;20021;-88
2022/10/15 02:02:44;;;;;;;42.13;32.03;;;;;;;11.22;100.00;100630.22;5040447;28;19937;-88
2022/10/15 02:05:16;;;;;;;35.55;26.63;;;;;;;11.26;100.00;100631.59;5035248;28;20116;-87
2022/10/15 02:08:11;;;;;;;38.58;30.23;;;;;;;11.26;100.00;100631.59;5045775;28;20025;-87
2022/10/15 02:11:04;;;;;;;41.17;35.05;;;;;;;11.32;100.00;100636.25;5051366;28;20060;-87
2022/10/15 02:13:51;;;;;;;39.80;29.55;;;;;;;11.30;100.00;100633.00;5041119;28;20523;-87
2022/10/15 02:16:26;;;;;;;42.83;37.08;;;;;;;11.31;100.00;100629.44;5028627;28;20060;-87
2022/10/15 02:19:06;;;;;;;37.13;25.63;;;;;;;11.25;100.00;100614.41;5043209;28;20031;-86
2022/10/15 02:22:04;;;;;;;35.65;24.77;;;;;;;11.35;100.00;100629.00;5025791;28;20652;-86
2022/10/15 02:24:59;;;;;;;36.50;29.77;;;;;;;11.27;100.00;100618.47;5019449;28;20431;-87
2022/10/15 02:27:26;;;;;;;35.85;25.48;;;;;;;11.34;100.00;100623.94;5029796;28;20075;-87
2022/10/15 02:29:54;;;;;;;42.83;33.38;;;;;;;11.21;100.00;100613.84;5028018;28;20056;-87
2022/10/15 02:32:21;;;;;;;38.30;28.70;;;;;;;11.29;100.00;100616.56;5047069;28;20068;-87
2022/10/15 02:34:49;;;;;;;36.15;25.48;;;;;;;11.27;100.00;100602.09;5046579;28;20024;-87
2022/10/15 02:37:18;;;;;;;39.78;35.25;;;;;;;11.34;100.00;100613.56;5030571;28;20041;-86
2022/10/15 02:39:44;;;;;;;39.97;35.45;;;;;;;11.27;100.00;100602.09;5026606;28;20021;-84
2022/10/15 02:42:09;;;;;;;39.10;34.83;;;;;;;11.34;100.00;100597.97;5046605;28;20110;-85
2022/10/15 02:44:34;;;;;;;44.05;39.53;;;;;;;11.25;100.00;100583.25;5046626;28;20108;-87
2022/10/15 02:47:00;;;;;;;40.45;36.17;;;;;;;11.24;100.00;100576.38;5045926;28;20029;-85
2022/10/15 02:49:26;;;;;;;35.20;25.90;;;;;;;11.27;100.00;100576.13;5033971;28;20032;-85
2022/10/15 02:51:51;;;;;;;35.40;29.60;;;;;;;11.34;100.00;100587.59;5050877;28;20063;-86
2022/10/15 02:54:16;;;;;;;39.15;31.98;;;;;;;11.31;100.00;100580.09;5027361;28;20109;-87
2022/10/15 02:56:42;;;;;;;36.05;30.88;;;;;;;11.34;100.00;100578.03;5045975;28;20066;-87
2022/10/15 02:59:07;;;;;;;37.65;33.20;;;;;;;11.29;100.00;100569.00;5049052;28;20387;-86
2022/10/15 03:01:33;;;;;;;35.95;31.83;;;;;;;11.34;100.00;100561.63;5052770;28;20029;-87
2022/10/15 03:03:58;;;;;;;35.78;29.60;;;;;;;11.34;100.00;100561.63;5033242;28;20033;-87
2022/10/15 03:06:24;;;;;;;37.05;30.10;;;;;;;11.44;100.00;100572.84;5045672;28;20025;-87
2022/10/15 03:08:49;;;;;;;41.03;36.90;;;;;;;11.35;100.00;100569.28;5030422;28;20041;-87
2022/10/15 03:11:14;;;;;;;35.05;26.33;;;;;;;11.41;100.00;100565.31;5036694;28;20024;-87
2022/10/15 03:13:40;;;;;;;33.85;24.65;;;;;;;11.40;100.00;100555.91;5051216;28;20036;-85
2022/10/15 03:16:07;;;;;;;34.28;25.60;;;;;;;11.47;100.00;100570.00;5053146;28;20029;-87
2022/10/15 03:18:33;;;;;;;37.78;29.23;;;;;;;11.41;100.00;100557.53;5048614;28;20322;-87
2022/10/15 03:20:59;;;;;;;36.42;31.95;;;;;;;11.38;100.00;100547.44;5036552;28;20116;-87
2022/10/15 03:23:26;;;;;;;35.80;31.77;;;;;;;11.46;100.00;100570.94;5039357;28;20029;-85
2022/10/15 03:25:53;;;;;;;34.83;26.98;;;;;;;11.44;100.00;100563.28;5040488;28;20055;-88
2022/10/15 03:28:20;;;;;;;38.42;34.47;;;;;;;11.39;100.00;100549.06;5038441;28;20029;-87
2022/10/15 03:30:45;;;;;;;35.75;31.95;;;;;;;11.39;100.00;100556.84;5036365;28;20044;-87
2022/10/15 03:33:11;;;;;;;33.58;27.42;;;;;;;11.41;100.00;100554.94;5034386;28;20479;-87
2022/10/15 03:35:37;;;;;;;35.45;30.38;;;;;;;11.40;100.00;100555.91;5055623;28;20017;-86
2022/10/15 03:38:03;;;;;;;34.72;29.13;;;;;;;11.41;100.00;100558.38;5030318;28;20025;-87
2022/10/15 03:40:28;;;;;;;32.67;24.90;;;;;;;11.37;100.00;100545.78;5028142;28;21053;-87
2022/10/15 03:42:55;;;;;;;36.65;29.05;;;;;;;11.41;100.00;100555.78;5044772;28;20476;-86
2022/10/15 03:45:21;;;;;;;34.10;28.95;;;;;;;11.40;100.00;100555.91;5028400;28;20029;-87
2022/10/15 03:47:47;;;;;;;31.10;24.38;;;;;;;11.36;100.00;100534.59;5045232;28;20629;-87
2022/10/15 03:50:12;;;;;;;38.20;34.10;;;;;;;11.32;100.00;100542.78;5026996;28;20028;-86
2022/10/15 03:52:38;;;;;;;36.47;32.70;;;;;;;11.31;100.00;100541.16;5044927;28;20036;-86
2022/10/15 03:55:04;;;;;;;36.88;33.03;;;;;;;11.35;100.00;100547.69;5045693;28;20475;-86
2022/10/15 03:57:30;;;;;;;35.63;30.05;;;;;;;11.30;100.00;100539.53;5051867;28;20100;-86
2022/10/15 03:59:55;;;;;;;33.20;29.67;;;;;;;11.28;100.00;100538.81;5027500;28;20456;-87
2022/10/15 04:02:21;;;;;;;34.28;30.20;;;;;;;11.33;100.00;100557.41;5047744;28;20483;-87
2022/10/15 04:04:46;;;;;;;30.50;25.05;;;;;;;11.31;100.00;100543.75;5052978;28;20060;-86
2022/10/15 04:07:12;;;;;;;36.17;31.75;;;;;;;11.22;100.00;100550.56;5035694;28;20028;-87
2022/10/15 04:09:37;;;;;;;34.28;30.40;;;;;;;11.20;100.00;100546.47;5046884;28;20562;-88
2022/10/15 04:12:03;;;;;;;36.13;32.60;;;;;;;11.23;100.00;100559.16;5030439;28;20032;-86
2022/10/15 04:14:28;;;;;;;32.75;28.77;;;;;;;11.17;100.00;100550.97;5049867;28;20025;-86
2022/10/15 04:16:55;;;;;;;30.20;24.17;;;;;;;11.14;100.00;100551.25;5048278;28;20384;-87
2022/10/15 04:19:20;;;;;;;29.52;23.67;;;;;;;11.23;100.00;100559.16;5026490;28;20701;-86
2022/10/15 04:21:45;;;;;;;31.08;22.38;;;;;;;11.16;100.00;100554.53;5048843;28;20063;-87
2022/10/15 04:24:11;;;;;;;36.63;33.00;;;;;;;11.16;100.00;100570.09;5048882;28;20094;-87
2022/10/15 04:26:37;;;;;;;31.45;26.20;;;;;;;11.18;100.00;100567.34;5024996;28;20384;-86
2022/10/15 04:29:02;;;;;;;34.88;31.35;;;;;;;11.13;100.00;100560.00;5051218;28;20045;-86
2022/10/15 04:31:28;;;;;;;33.70;30.17;;;;;;;11.08;100.00;100556.97;5037541;28;20020;-86
2022/10/15 04:33:53;;;;;;;36.20;30.60;;;;;;;11.06;100.00;100547.69;5026833;28;20024;-85
2022/10/15 04:36:18;;;;;;;33.85;30.25;;;;;;;11.13;100.00;100567.78;5044001;28;20468;-86
2022/10/15 04:38:44;;;;;;;34.42;30.13;;;;;;;11.08;100.00;100556.97;5056349;28;20503;-86
2022/10/15 04:41:11;;;;;;;32.58;25.13;;;;;;;11.19;100.00;100568.22;5048058;28;20099;-85
2022/10/15 04:43:37;;;;;;;33.63;27.42;;;;;;;11.17;100.00;100566.53;5026239;28;20064;-85
2022/10/15 04:46:05;;;;;;;40.00;35.58;;;;;;;11.16;100.00;100564.91;5044575;28;20332;-87
2022/10/15 04:48:32;;;;;;;40.25;36.30;;;;;;;11.13;100.00;100557.41;5040742;28;20525;-86
2022/10/15 04:51:12;;;;;;;35.13;26.35;;;;;;;11.23;100.00;100565.19;5042870;28;20038;-87
2022/10/15 04:53:37;;;;;;;33.88;27.92;;;;;;;11.22;100.00;100567.91;5044670;28;20036;-87
2022/10/15 04:56:07;;;;;;;31.83;25.38;;;;;;;11.27;100.00;100576.13;5046440;28;20024;-85
2022/10/15 04:58:34;;;;;;;36.45;32.65;;;;;;;11.23;100.00;100564.38;5041042;28;20420;-87
2022/10/15 05:01:06;;;;;;;34.35;24.35;;;;;;;11.30;100.00;100571.50;5044000;28;20033;-86
2022/10/15 05:03:33;;;;;;;38.88;30.42;;;;;;;11.21;100.00;100550.72;5046145;28;20098;-86
2022/10/15 05:06:03;;;;;;;35.45;30.75;;;;;;;11.26;100.00;100564.09;5026685;28;20021;-86
2022/10/15 05:08:29;;;;;;;35.45;29.83;;;;;;;11.27;100.00;100555.34;5053795;28;20039;-86
2022/10/15 05:10:58;;;;;;;30.42;26.58;;;;;;;11.30;100.00;100555.09;5051346;28;20041;-87
2022/10/15 05:13:23;;;;;;;33.88;25.42;;;;;;;11.39;100.00;100575.84;5047906;28;20032;-86
2022/10/15 05:15:49;;;;;;;32.85;23.13;;;;;;;11.36;100.00;100562.34;5057229;28;20087;-87
2022/10/15 05:18:14;;;;;;;33.40;23.50;;;;;;;11.42;100.00;100572.19;5033357;28;20469;-85
2022/10/15 05:20:39;;;;;;;34.70;28.23;;;;;;;11.41;100.00;100578.31;5025984;28;20029;-86
2022/10/15 05:23:05;;;;;;;33.78;29.02;;;;;;;11.33;100.00;100557.41;5045117;28;20472;-87
2022/10/15 05:25:30;;;;;;;36.40;30.77;;;;;;;11.40;100.00;100561.09;5016866;28;20155;-86
2022/10/15 05:27:55;;;;;;;33.90;23.23;;;;;;;11.44;100.00;100584.06;5029012;28;20041;-86
2022/10/15 05:30:21;;;;;;;36.75;30.05;;;;;;;11.38;100.00;100563.00;5043750;28;20093;-86
2022/10/15 05:32:51;;;;;;;35.63;27.02;;;;;;;11.43;100.00;100566.03;5047616;28;20040;-87
2022/10/15 05:35:17;;;;;;;39.72;35.13;;;;;;;11.34;100.00;100566.84;5030184;28;20024;-87
2022/10/15 05:37:42;;;;;;;41.13;31.10;;;;;;;11.37;100.00;100567.38;5061621;28;20410;-87
2022/10/15 05:40:08;;;;;;;37.15;28.83;;;;;;;11.45;100.00;100579.69;5047745;28;20468;-87
2022/10/15 05:42:33;;;;;;;39.70;34.85;;;;;;;11.37;100.00;100561.38;5029497;28;20044;-85
2022/10/15 05:44:58;;;;;;;40.88;34.83;;;;;;;11.43;100.00;100581.59;5047112;28;20043;-86
2022/10/15 05:47:24;;;;;;;41.35;33.17;;;;;;;11.40;100.00;100566.28;5036609;28;20029;-87
2022/10/15 05:49:49;;;;;;;32.08;20.75;;;;;;;11.44;100.00;100572.84;5047148;28;20133;-86
2022/10/15 05:52:15;;;;;;;34.83;24.50;;;;;;;11.41;100.00;100565.31;5047236;28;20028;-86
2022/10/15 05:54:41;;;;;;;34.50;23.98;;;;;;;11.52;100.00;100591.16;5042469;28;20063;-86
2022/10/15 05:57:06;;;;;;;35.83;27.58;;;;;;;11.40;100.00;100576.66;5051073;28;20032;-85
2022/10/15 05:59:31;;;;;;;40.42;34.78;;;;;;;11.47;100.00;100580.38;5044925;28;20053;-86
2022/10/15 06:01:57;;;;;;;42.17;34.53;;;;;;;11.51;100.00;100589.53;5028398;28;20120;-87
2022/10/15 06:04:22;;;;;;;41.50;33.47;;;;;;;11.46;100.00;100576.13;5029381;28;20070;-86
2022/10/15 06:06:47;;;;;;;31.58;21.25;;;;;;;11.56;100.00;100571.75;5043642;28;20160;-87
2022/10/15 06:09:13;;;;;;;36.40;28.88;;;;;;;11.49;100.00;100560.28;5047531;28;20044;-87
2022/10/15 06:11:39;;;;;;;39.00;31.33;;;;;;;11.56;100.00;100576.94;5027860;28;20060;-86
2022/10/15 06:14:04;;;;;;;32.65;25.42;;;;;;;11.61;100.00;100566.97;5047025;28;20388;-86
2022/10/15 06:16:29;;;;;;;36.00;27.70;;;;;;;11.50;100.00;100541.13;5024813;28;20156;-84
2022/10/15 06:18:55;;;;;;;31.45;19.98;;;;;;;11.64;100.00;100566.69;5047404;28;20109;-87
2022/10/15 06:21:20;;;;;;;35.72;26.65;;;;;;;11.63;100.00;100561.63;5056412;28;20487;-86
2022/10/15 06:23:46;;;;;;;36.38;27.50;;;;;;;11.63;100.00;100557.25;5030982;28;20025;-85
2022/10/15 06:26:11;;;;;;;34.60;26.60;;;;;;;11.68;100.00;100568.03;5055559;28;20033;-86
2022/10/15 06:28:37;;;;;;;30.67;21.08;;;;;;;11.65;100.00;100555.34;5028454;28;20072;-86
2022/10/15 06:31:04;;;;;;;30.08;20.85;;;;;;;11.76;100.00;100571.75;5027256;28;20029;-86
2022/10/15 06:33:30;;;;;;;34.70;28.20;;;;;;;11.74;100.00;100573.66;5041964;28;20035;-85
2022/10/15 06:36:07;;;;;;;34.40;26.95;;;;;;;11.76;100.00;100566.56;5017976;28;20029;-87
2022/10/15 06:38:32;;;;;;;32.17;25.60;;;;;;;11.77;100.00;100563.00;5052286;28;20029;-87
2022/10/15 06:40:58;;;;;;;33.97;27.85;;;;;;;11.73;100.00;100556.44;5029701;28;20102;-86
2022/10/15 06:43:24;;;;;;;32.13;23.65;;;;;;;11.76;100.00;100566.56;5027092;28;20037;-86
2022/10/15 06:45:49;;;;;;;33.30;29.23;;;;;;;11.77;100.00;100560.38;5030039;28;20033;-85
2022/10/15 06:48:15;;;;;;;39.40;28.48;;;;;;;11.80;100.00;100563.50;5055582;28;20035;-86
2022/10/15 06:50:41;;;;;;;28.85;21.80;;;;;;;11.80;100.00;100553.13;5047761;28;20036;-86
2022/10/15 06:53:07;;;;;;;29.13;25.60;;;;;;;11.77;100.00;100553.41;5034331;28;20392;-86
2022/10/15 06:55:32;;;;;;;28.52;20.40;;;;;;;11.86;100.00;100573.38;5025171;28;20384;-87
2022/10/15 06:57:57;;;;;;;26.83;21.67;;;;;;;11.81;100.00;100559.97;5022817;28;20089;-86
2022/10/15 07:00:24;;;;;;;26.83;18.35;;;;;;;11.87;100.00;100563.81;5027923;28;20043;-88
2022/10/15 07:02:50;;;;;;;30.40;26.25;;;;;;;11.84;100.00;100553.69;5042826;28;20076;-86
2022/10/15 07:05:16;;;;;;;31.08;23.63;;;;;;;11.91;100.00;100570.38;5046984;28;20037;-85
2022/10/15 07:07:42;;;;;;;30.83;25.60;;;;;;;11.88;100.00;100566.28;5050477;28;20029;-87
2022/10/15 07:10:07;;;;;;;28.83;23.00;;;;;;;11.95;100.00;100571.75;5054356;28;20484;-87
2022/10/15 07:12:33;;;;;;;29.45;23.15;;;;;;;11.97;100.00;100575.00;5053308;28;20029;-86
2022/10/15 07:14:58;;;;;;;30.55;27.20;;;;;;;11.92;100.00;100566.81;5026894;28;20544;-88
2022/10/15 07:17:24;;;;;;;32.05;26.73;;;;;;;11.90;100.00;100568.72;5056832;28;20024;-87
2022/10/15 07:19:49;;;;;;;31.90;28.00;;;;;;;11.90;100.00;100568.72;5026119;28;20036;-85
2022/10/15 07:22:14;;;;;;;29.70;25.08;;;;;;;11.94;100.00;100580.50;5051268;28;20032;-87
2022/10/15 07:24:40;;;;;;;31.27;26.98;;;;;;;11.95;100.00;100587.34;5049001;28;20029;-87
2022/10/15 07:27:05;;;;;;;30.27;24.10;;;;;;;11.94;100.00;100577.91;5053066;28;20132;-86
2022/10/15 07:29:31;;;;;;;31.85;21.25;;;;;;;12.06;100.00;100588.97;5057548;28;20056;-88
2022/10/15 07:31:56;;;;;;;28.58;22.90;;;;;;;12.05;100.00;100577.75;5045620;28;20037;-87
2022/10/15 07:34:22;;;;;;;31.35;25.50;;;;;;;11.93;100.00;100560.66;5052715;28;20521;-87
2022/10/15 07:36:47;;;;;;;32.33;23.98;;;;;;;11.95;100.00;100556.16;5046594;28;20047;-88
2022/10/15 07:39:13;;;;;;;27.60;20.33;;;;;;;12.04;100.00;100555.28;5052046;28;20021;-87
2022/10/15 07:41:38;;;;;;;34.80;30.52;;;;;;;12.06;100.00;100555.97;5050924;28;20036;-87
2022/10/15 07:44:04;;;;;;;33.70;29.42;;;;;;;12.10;100.00;100559.94;5047065;28;20519;-88
2022/10/15 07:46:29;;;;;;;36.55;32.45;;;;;;;12.11;100.00;100551.19;5051832;28;20528;-88
2022/10/15 07:48:54;;;;;;;36.28;31.60;;;;;;;12.14;100.00;100550.88;5035194;28;20115;-87
2022/10/15 07:51:20;;;;;;;33.00;26.77;;;;;;;12.25;100.00;100567.28;5028499;28;20028;-87
2022/10/15 07:53:46;;;;;;;34.58;27.50;;;;;;;12.24;100.00;100550.84;5048314;28;20032;-87
2022/10/15 07:56:13;;;;;;;39.13;32.28;;;;;;;12.27;100.00;100554.94;5047152;28;20438;-88
2022/10/15 07:58:39;;;;;;;37.00;28.92;;;;;;;12.25;100.00;100549.88;5035103;28;20024;-88
2022/10/15 08:01:06;;;;;;;38.10;32.95;;;;;;;12.25;100.00;100536.88;5035984;28;20170;-87
2022/10/15 08:03:32;;;;;;;38.97;34.10;;;;;;;12.32;100.00;100547.53;5051278;28;20464;-88
2022/10/15 08:06:03;;;;;;;37.30;30.25;;;;;;;12.43;100.00;100547.34;5036044;28;20035;-88
2022/10/15 08:08:29;;;;;;;35.45;29.67;;;;;;;12.43;100.00;100547.34;5031676;28;20029;-88
2022/10/15 08:10:54;;;;;;;36.92;32.28;;;;;;;12.53;100.00;100553.31;5047092;28;20487;-87
2022/10/15 08:13:20;;;;;;;34.72;29.23;;;;;;;12.52;100.00;100549.09;5047438;28;20029;-88
2022/10/15 08:15:46;;;;;;;34.15;28.83;;;;;;;12.59;100.00;100554.53;5031040;28;20024;-86
2022/10/15 08:18:12;;;;;;;32.97;24.88;;;;;;;12.61;100.00;100544.78;5043425;28;20135;-88
2022/10/15 08:20:37;;;;;;;33.67;27.27;;;;;;;12.58;100.00;100538.09;5050225;28;20025;-89
2022/10/15 08:23:03;;;;;;;36.72;32.92;;;;;;;12.55;100.00;100532.38;5044376;28;20029;-85
2022/10/15 08:25:30;;;;;;;34.83;31.10;;;;;;;12.67;100.00;100554.63;5046316;28;20043;-85
2022/10/15 08:27:56;;;;;;;34.28;29.90;;;;;;;12.63;100.00;100530.69;5059348;28;20318;-84
2022/10/15 08:30:21;;;;;;;29.92;20.92;;;;;;;12.73;100.00;100536.66;5054729;28;20049;-85
2022/10/15 08:32:47;;;;;;;26.52;19.10;;;;;;;12.70;100.00;100521.34;5053376;28;20024;-84
2022/10/15 08:35:12;;;;;;;29.88;24.65;;;;;;;12.72;100.00;100519.38;5050824;28;20017;-85
2022/10/15 08:37:38;;;;;;;29.30;25.45;;;;;;;12.79;100.00;100530.06;5055175;28;20032;-86
2022/10/15 08:40:04;;;;;;;30.58;27.27;;;;;;;12.81;100.00;100528.13;5020125;28;20626;-84
2022/10/15 08:42:45;;;;;;;30.67;27.48;;;;;;;12.89;100.00;100529.97;5048504;28;20067;-84
2022/10/15 08:45:17;;;;;;;29.67;26.17;;;;;;;12.94;100.00;100527.75;5043785;28;20378;-83
2022/10/15 08:47:49;;;;;;;28.98;25.73;;;;;;;13.01;100.00;100528.78;5018296;28;20075;-84
2022/10/15 08:50:26;;;;;;;27.42;18.83;;;;;;;13.11;100.00;100529.53;5045201;28;20032;-84
2022/10/15 08:52:53;;;;;;;24.75;17.35;;;;;;;13.12;100.00;100515.56;5026226;28;20062;-84
2022/10/15 08:55:21;;;;;;;26.27;19.85;;;;;;;13.22;100.00;100521.53;5044408;28;20471;-84
2022/10/15 08:57:57;;;;;;;28.52;22.75;;;;;;;13.22;100.00;100521.53;5030389;28;20285;-84
2022/10/15 09:00:22;;;;;;;24.30;21.80;;;;;;;13.26;100.00;100522.88;5049594;28;20460;-84
2022/10/15 09:03:13;;;;;;;24.13;20.90;;;;;;;13.34;100.00;100518.69;5027357;28;20039;-84
2022/10/15 09:05:47;;;;;;;19.40;15.75;;;;;;;13.38;100.00;100514.84;5055952;28;20064;-84
2022/10/15 09:08:30;;;;;;;21.88;19.52;;;;;;;13.40;100.00;100512.88;5033087;28;20029;-84
2022/10/15 09:11:04;;;;;;;20.98;18.77;;;;;;;13.40;100.00;100498.06;5051610;28;20139;-83
2022/10/15 09:13:39;;;;;;;19.25;17.25;;;;;;;13.42;100.00;100508.34;5044194;28;20028;-85
2022/10/15 09:16:19;;;;;;;18.27;16.35;;;;;;;13.47;100.00;100493.06;5049997;28;20063;-85
2022/10/15 09:18:51;;;;;;;18.27;16.15;;;;;;;13.44;100.00;100482.97;5047234;28;20155;-85
2022/10/15 09:21:17;;;;;;;19.08;16.80;;;;;;;13.48;100.00;100479.09;5050866;28;20025;-84
2022/10/15 09:23:44;;;;;;;17.50;15.60;;;;;;;13.39;100.00;100469.56;5027659;28;20025;-84
2022/10/15 09:26:27;;;;;;;18.52;16.38;;;;;;;13.47;100.00;100482.66;5044487;28;20029;-84
2022/10/15 09:29:01;;;;;;;18.08;14.90;;;;;;;13.53;100.00;100487.25;5018184;28;20049;-84
2022/10/15 09:31:38;;;;;;;17.05;15.25;;;;;;;13.53;100.00;100466.41;5044105;28;20151;-84
2022/10/15 09:34:28;;;;;;;17.05;14.80;;;;;;;13.59;100.00;100471.03;5043225;28;20021;-84
2022/10/15 09:36:57;;;;;;;16.25;14.55;;;;;;;13.67;100.00;100483.28;5048649;28;20029;-84
2022/10/15 09:39:46;;;;;;;16.10;14.50;;;;;;;13.63;100.00;100477.56;5053175;28;20064;-85
2022/10/15 09:42:23;;;;;;;14.90;13.23;;;;;;;13.67;100.00;100484.09;5042690;28;20040;-84
2022/10/15 09:44:50;;;;;;;15.32;13.27;;;;;;;13.67;100.00;100484.09;5045201;28;20387;-84
2022/10/15 09:47:23;;;;;;;15.07;13.48;;;;;;;13.58;100.00;100464.16;5051290;28;20531;-84
2022/10/15 09:49:48;;;;;;;14.90;13.07;;;;;;;13.60;100.00;100457.03;5043803;28;20033;-83
2022/10/15 09:52:36;;;;;;;14.93;13.32;;;;;;;13.64;100.00;100457.53;5043833;28;20029;-84
2022/10/15 09:55:24;;;;;;;16.00;14.05;;;;;;;13.67;100.00;100463.25;5024291;28;20055;-83
2022/10/15 09:57:53;;;;;;;16.25;14.52;;;;;;;13.60;100.00;100459.63;5036051;28;20056;-83
2022/10/15 10:00:19;;;;;;;15.05;13.13;;;;;;;13.55;100.00;100448.84;5043660;28;20051;-83
2022/10/15 10:03:04;;;;;;;14.55;12.00;;;;;;;13.61;100.00;100453.44;5042535;28;20396;-83
2022/10/15 10:05:32;;;;;;;15.65;13.80;;;;;;;13.57;100.00;100452.09;5041869;28;20139;-83
2022/10/15 10:08:36;;;;;;;15.43;13.13;;;;;;;13.68;100.00;100459.66;5038909;28;20033;-82
2022/10/15 10:11:04;;;;;;;16.65;13.82;;;;;;;13.58;100.00;100438.09;4980999;28;20050;-82
2022/10/15 10:13:31;;;;;;;15.25;12.70;;;;;;;13.64;100.00;100453.13;4979429;28;20046;-82
2022/10/15 10:16:04;;;;;;;15.88;14.10;;;;;;;13.66;100.00;100446.00;4988047;28;20042;-83
2022/10/15 10:18:31;;;;;;;16.65;13.65;;;;;;;13.54;100.00;100427.19;4984632;28;20033;-83
2022/10/15 10:21:01;;;;;;;18.45;14.88;;;;;;;13.66;100.00;100443.38;4988337;28;20061;-82
2022/10/15 10:23:38;;;;;;;17.23;14.35;;;;;;;13.59;100.00;100433.72;4988058;28;20030;-83
2022/10/15 10:26:09;;;;;;;17.42;14.57;;;;;;;13.59;100.00;100439.75;4971639;28;20034;-83
2022/10/15 10:28:51;;;;;;;17.70;14.77;;;;;;;13.60;100.00;100445.78;4974327;28;20435;-83
2022/10/15 10:31:17;;;;;;;19.55;14.70;;;;;;;13.54;100.00;100431.59;4984327;28;20146;-83
2022/10/15 10:33:49;;;;;;;18.75;16.33;;;;;;;13.58;100.00;100438.09;4985338;28;20042;-83
2022/10/15 10:36:27;;;;;;;18.90;14.98;;;;;;;13.63;100.00;100432.44;4984543;28;20056;-83
2022/10/15 10:39:14;;;;;;;20.45;14.07;;;;;;;13.66;100.00;100451.19;4979091;28;20569;-83
2022/10/15 10:41:54;;;;;;;16.70;13.80;;;;;;;13.66;100.00;100445.16;4987535;28;20562;-84
2022/10/15 10:44:38;;;;;;;16.80;13.90;;;;;;;13.64;100.00;100432.28;4984469;28;20078;-83
2022/10/15 10:47:23;;;;;;;15.68;12.85;;;;;;;13.64;100.00;100432.28;5033140;28;20067;-83
2022/10/15 10:49:58;;;;;;;15.57;13.55;;;;;;;13.64;100.00;100440.09;5046471;28;20043;-83
2022/10/15 10:52:30;;;;;;;17.15;13.73;;;;;;;13.66;100.00;100443.38;5039724;28;20051;-84
2022/10/15 10:55:10;;;;;;;16.77;11.70;;;;;;;13.69;100.00;100435.25;5050334;28;20554;-84
2022/10/15 10:57:44;;;;;;;15.70;10.98;;;;;;;13.67;100.00;100421.56;5045561;28;20068;-84
2022/10/15 11:00:34;;;;;;;14.27;12.10;;;;;;;13.64;100.00;100416.63;5037561;28;20029;-84
2022/10/15 11:03:01;;;;;;;14.55;12.02;;;;;;;13.69;100.00;100424.81;5037684;28;20033;-84
2022/10/15 11:05:30;;;;;;;15.40;11.73;;;;;;;13.70;100.00;100416.00;5046021;28;20041;-84
2022/10/15 11:08:20;;;;;;;13.13;10.35;;;;;;;13.77;100.00;100417.06;5058707;28;20058;-84
2022/10/15 11:11:21;;;;;;;12.57;10.02;;;;;;;13.87;100.00;100421.31;5054135;28;20071;-84
2022/10/15 11:13:51;;;;;;;12.75;10.85;;;;;;;13.87;100.00;100416.09;5038285;28;20037;-84
2022/10/15 11:16:37;;;;;;;11.93;9.70;;;;;;;13.86;100.00;100398.81;5045214;28;20043;-84
2022/10/15 11:19:43;;;;;;;12.38;9.93;;;;;;;13.93;100.00;100408.47;5035547;28;20026;-84